sensor_id;sensor_type;location;lat;lon;timestamp;temperature;humidity
12123;DHT22;6125;59.628;17.852;2023-05-31T00:01:55;13.40;99.90
12123;DHT22;6125;59.628;17.852;2023-05-31T00:04:24;13.40;99.90
12123;DHT22;6125;59.628;17.852;2023-05-31T00:06:51;13.30;99.90
12123;DHT22;6125;59.628;17.852;2023-05-31T00:09:18;13.30;99.90
12123;DHT22;6125;59.628;17.852;2023-05-31T00:11:45;13.30;99.90
12123;DHT22;6125;59.628;17.852;2023-05-31T00:14:12;13.20;99.90
12123;DHT22;6125;59.628;17.852;2023-05-31T00:16:39;13.20;99.90
12123;DHT22;6125;59.628;17.852;2023-05-31T00:19:06;13.20;99.90
12123;DHT22;6125;59.628;17.852;2023-05-31T00:21:35;13.20;99.90
12123;DHT22;6125;59.628;17.852;2023-05-31T00:24:02;13.20;99.90
12123;DHT22;6125;59.628;17.852;2023-05-31T00:26:29;13.20;99.90
12123;DHT22;6125;59.628;17.852;2023-05-31T00:28:56;13.10;99.90
12123;DHT22;6125;59.628;17.852;2023-05-31T00:31:23;13.10;99.90
12123;DHT22;6125;59.628;17.852;2023-05-31T00:33:50;13.10;99.90
12123;DHT22;6125;59.628;17.852;2023-05-31T00:36:17;13.10;99.90
12123;DHT22;6125;59.628;17.852;2023-05-31T00:38:46;13.10;99.90
12123;DHT22;6125;59.628;17.852;2023-05-31T00:41:13;13.00;99.90
12123;DHT22;6125;59.628;17.852;2023-05-31T00:43:40;13.00;99.90
12123;DHT22;6125;59.628;17.852;2023-05-31T00:46:11;13.00;99.90
12123;DHT22;6125;59.628;17.852;2023-05-31T00:48:40;13.00;99.90
12123;DHT22;6125;59.628;17.852;2023-05-31T00:51:08;13.00;99.90
12123;DHT22;6125;59.628;17.852;2023-05-31T00:53:35;13.00;99.90
12123;DHT22;6125;59.628;17.852;2023-05-31T00:56:04;13.00;99.90
12123;DHT22;6125;59.628;17.852;2023-05-31T00:58:32;12.90;99.90
12123;DHT22;6125;59.628;17.852;2023-05-31T01:01:00;12.90;99.90
12123;DHT22;6125;59.628;17.852;2023-05-31T01:03:27;12.90;99.90
12123;DHT22;6125;59.628;17.852;2023-05-31T01:05:55;12.90;99.90
12123;DHT22;6125;59.628;17.852;2023-05-31T01:08:23;12.90;99.90
12123;DHT22;6125;59.628;17.852;2023-05-31T01:10:52;12.90;99.90
12123;DHT22;6125;59.628;17.852;2023-05-31T01:13:26;12.80;99.90
12123;DHT22;6125;59.628;17.852;2023-05-31T01:15:59;12.80;99.90
12123;DHT22;6125;59.628;17.852;2023-05-31T01:18:34;12.80;99.90
12123;DHT22;6125;59.628;17.852;2023-05-31T01:21:03;12.80;99.90
12123;DHT22;6125;59.628;17.852;2023-05-31T01:23:34;12.90;99.90
12123;DHT22;6125;59.628;17.852;2023-05-31T01:26:40;12.90;99.90
12123;DHT22;6125;59.628;17.852;2023-05-31T01:29:13;12.90;99.90
12123;DHT22;6125;59.628;17.852;2023-05-31T01:31:41;12.90;99.90
12123;DHT22;6125;59.628;17.852;2023-05-31T01:34:11;12.90;99.90
12123;DHT22;6125;59.628;17.852;2023-05-31T01:36:39;13.00;99.90
12123;DHT22;6125;59.628;17.852;2023-05-31T01:39:07;13.00;99.90
12123;DHT22;6125;59.628;17.852;2023-05-31T01:41:38;13.00;99.90
12123;DHT22;6125;59.628;17.852;2023-05-31T01:44:07;13.00;99.90
12123;DHT22;6125;59.628;17.852;2023-05-31T01:46:35;13.00;99.90
12123;DHT22;6125;59.628;17.852;2023-05-31T01:49:03;13.00;99.90
12123;DHT22;6125;59.628;17.852;2023-05-31T01:51:32;13.00;99.90
12123;DHT22;6125;59.628;17.852;2023-05-31T01:54:03;13.10;99.90
12123;DHT22;6125;59.628;17.852;2023-05-31T01:56:30;13.00;99.90
12123;DHT22;6125;59.628;17.852;2023-05-31T01:58:58;13.10;99.90
12123;DHT22;6125;59.628;17.852;2023-05-31T02:01:28;13.10;99.90
12123;DHT22;6125;59.628;17.852;2023-05-31T02:03:56;13.10;99.90
12123;DHT22;6125;59.628;17.852;2023-05-31T02:06:23;13.10;99.90
12123;DHT22;6125;59.628;17.852;2023-05-31T02:08:53;13.00;99.90
12123;DHT22;6125;59.628;17.852;2023-05-31T02:11:20;13.00;99.90
12123;DHT22;6125;59.628;17.852;2023-05-31T02:13:47;13.10;99.90
12123;DHT22;6125;59.628;17.852;2023-05-31T02:16:14;13.10;99.90
12123;DHT22;6125;59.628;17.852;2023-05-31T02:18:43;13.10;99.90
12123;DHT22;6125;59.628;17.852;2023-05-31T02:21:10;13.10;99.90
12123;DHT22;6125;59.628;17.852;2023-05-31T02:23:37;13.10;99.90
12123;DHT22;6125;59.628;17.852;2023-05-31T02:26:05;13.10;99.90
12123;DHT22;6125;59.628;17.852;2023-05-31T02:28:32;13.10;99.90
12123;DHT22;6125;59.628;17.852;2023-05-31T02:30:59;13.10;99.90
12123;DHT22;6125;59.628;17.852;2023-05-31T02:33:27;13.10;99.90
12123;DHT22;6125;59.628;17.852;2023-05-31T02:35:56;13.10;99.90
12123;DHT22;6125;59.628;17.852;2023-05-31T02:38:25;13.10;99.90
12123;DHT22;6125;59.628;17.852;2023-05-31T02:40:52;13.20;99.90
12123;DHT22;6125;59.628;17.852;2023-05-31T02:43:19;13.20;99.90
12123;DHT22;6125;59.628;17.852;2023-05-31T02:45:53;13.20;99.90
12123;DHT22;6125;59.628;17.852;2023-05-31T02:48:20;13.20;99.90
12123;DHT22;6125;59.628;17.852;2023-05-31T02:50:47;13.20;99.90
12123;DHT22;6125;59.628;17.852;2023-05-31T02:53:16;13.20;99.90
12123;DHT22;6125;59.628;17.852;2023-05-31T02:55:44;13.20;99.90
12123;DHT22;6125;59.628;17.852;2023-05-31T02:58:12;13.20;99.90
12123;DHT22;6125;59.628;17.852;2023-05-31T03:00:40;13.30;99.90
12123;DHT22;6125;59.628;17.852;2023-05-31T03:03:07;13.30;99.90
12123;DHT22;6125;59.628;17.852;2023-05-31T03:05:36;13.30;99.90
12123;DHT22;6125;59.628;17.852;2023-05-31T03:08:03;13.30;99.90
12123;DHT22;6125;59.628;17.852;2023-05-31T03:10:32;13.30;99.90
12123;DHT22;6125;59.628;17.852;2023-05-31T03:12:59;13.30;99.90
12123;DHT22;6125;59.628;17.852;2023-05-31T03:15:26;13.30;99.90
12123;DHT22;6125;59.628;17.852;2023-05-31T03:17:54;13.30;99.90
12123;DHT22;6125;59.628;17.852;2023-05-31T03:20:21;13.40;99.90
12123;DHT22;6125;59.628;17.852;2023-05-31T03:22:48;13.40;99.90
12123;DHT22;6125;59.628;17.852;2023-05-31T03:25:15;13.40;99.90
12123;DHT22;6125;59.628;17.852;2023-05-31T03:27:44;13.40;99.90
12123;DHT22;6125;59.628;17.852;2023-05-31T03:30:12;13.40;99.90
12123;DHT22;6125;59.628;17.852;2023-05-31T03:32:39;13.40;99.90
12123;DHT22;6125;59.628;17.852;2023-05-31T03:35:07;13.40;99.90
12123;DHT22;6125;59.628;17.852;2023-05-31T03:37:34;13.40;99.90
12123;DHT22;6125;59.628;17.852;2023-05-31T03:40:02;13.40;99.90
12123;DHT22;6125;59.628;17.852;2023-05-31T03:42:30;13.50;99.90
12123;DHT22;6125;59.628;17.852;2023-05-31T03:44:58;13.50;99.90
12123;DHT22;6125;59.628;17.852;2023-05-31T03:47:25;13.50;99.90
12123;DHT22;6125;59.628;17.852;2023-05-31T03:49:52;13.50;99.90
12123;DHT22;6125;59.628;17.852;2023-05-31T03:52:20;13.50;99.90
12123;DHT22;6125;59.628;17.852;2023-05-31T03:54:47;13.50;99.90
12123;DHT22;6125;59.628;17.852;2023-05-31T03:57:14;13.60;99.90
12123;DHT22;6125;59.628;17.852;2023-05-31T03:59:41;13.60;99.90
12123;DHT22;6125;59.628;17.852;2023-05-31T04:02:10;13.60;99.90
12123;DHT22;6125;59.628;17.852;2023-05-31T04:04:37;13.60;99.90
12123;DHT22;6125;59.628;17.852;2023-05-31T04:07:04;13.70;99.90
12123;DHT22;6125;59.628;17.852;2023-05-31T04:09:31;13.60;99.90
12123;DHT22;6125;59.628;17.852;2023-05-31T04:11:58;13.70;99.90
12123;DHT22;6125;59.628;17.852;2023-05-31T04:14:25;13.60;99.90
12123;DHT22;6125;59.628;17.852;2023-05-31T04:16:52;13.70;99.90
12123;DHT22;6125;59.628;17.852;2023-05-31T04:19:21;13.70;99.90
12123;DHT22;6125;59.628;17.852;2023-05-31T04:21:48;13.70;99.90
12123;DHT22;6125;59.628;17.852;2023-05-31T04:24:15;13.70;99.90
12123;DHT22;6125;59.628;17.852;2023-05-31T04:26:42;13.80;99.90
12123;DHT22;6125;59.628;17.852;2023-05-31T04:29:10;13.80;99.90
12123;DHT22;6125;59.628;17.852;2023-05-31T04:31:37;13.80;99.90
12123;DHT22;6125;59.628;17.852;2023-05-31T04:34:04;13.90;99.90
12123;DHT22;6125;59.628;17.852;2023-05-31T04:36:33;14.00;99.90
12123;DHT22;6125;59.628;17.852;2023-05-31T04:39:01;14.00;99.90
12123;DHT22;6125;59.628;17.852;2023-05-31T04:41:32;14.10;99.90
12123;DHT22;6125;59.628;17.852;2023-05-31T04:43:59;14.30;99.90
12123;DHT22;6125;59.628;17.852;2023-05-31T04:46:26;14.30;99.90
12123;DHT22;6125;59.628;17.852;2023-05-31T04:48:53;14.30;99.90
12123;DHT22;6125;59.628;17.852;2023-05-31T04:51:21;14.40;99.90
12123;DHT22;6125;59.628;17.852;2023-05-31T04:53:50;14.40;99.90
12123;DHT22;6125;59.628;17.852;2023-05-31T04:56:17;14.40;99.90
12123;DHT22;6125;59.628;17.852;2023-05-31T04:58:44;14.40;99.90
12123;DHT22;6125;59.628;17.852;2023-05-31T05:01:12;14.50;99.90
12123;DHT22;6125;59.628;17.852;2023-05-31T05:03:40;14.50;99.90
12123;DHT22;6125;59.628;17.852;2023-05-31T05:06:12;14.50;99.90
12123;DHT22;6125;59.628;17.852;2023-05-31T05:08:41;14.50;99.90
12123;DHT22;6125;59.628;17.852;2023-05-31T05:11:10;14.50;99.90
12123;DHT22;6125;59.628;17.852;2023-05-31T05:13:37;14.50;99.90
12123;DHT22;6125;59.628;17.852;2023-05-31T05:16:04;14.60;99.90
12123;DHT22;6125;59.628;17.852;2023-05-31T05:18:31;14.60;99.90
12123;DHT22;6125;59.628;17.852;2023-05-31T05:20:58;14.70;99.90
12123;DHT22;6125;59.628;17.852;2023-05-31T05:23:26;14.80;99.90
12123;DHT22;6125;59.628;17.852;2023-05-31T05:25:53;14.90;99.90
12123;DHT22;6125;59.628;17.852;2023-05-31T05:28:21;14.90;99.90
12123;DHT22;6125;59.628;17.852;2023-05-31T05:30:49;15.00;99.90
12123;DHT22;6125;59.628;17.852;2023-05-31T05:33:16;15.10;99.90
12123;DHT22;6125;59.628;17.852;2023-05-31T05:35:43;15.20;99.90
12123;DHT22;6125;59.628;17.852;2023-05-31T05:38:10;15.30;99.90
12123;DHT22;6125;59.628;17.852;2023-05-31T05:40:37;15.40;99.90
12123;DHT22;6125;59.628;17.852;2023-05-31T05:43:05;15.50;99.90
12123;DHT22;6125;59.628;17.852;2023-05-31T05:45:33;15.50;99.90
12123;DHT22;6125;59.628;17.852;2023-05-31T05:48:01;15.50;99.90
12123;DHT22;6125;59.628;17.852;2023-05-31T05:50:28;15.60;99.90
12123;DHT22;6125;59.628;17.852;2023-05-31T05:52:55;15.60;99.90
12123;DHT22;6125;59.628;17.852;2023-05-31T05:55:22;15.60;99.90
12123;DHT22;6125;59.628;17.852;2023-05-31T05:57:49;15.70;99.90
12123;DHT22;6125;59.628;17.852;2023-05-31T06:00:18;15.70;99.90
12123;DHT22;6125;59.628;17.852;2023-05-31T06:02:48;15.80;99.90
12123;DHT22;6125;59.628;17.852;2023-05-31T06:05:15;15.80;99.90
12123;DHT22;6125;59.628;17.852;2023-05-31T06:07:42;15.80;99.90
12123;DHT22;6125;59.628;17.852;2023-05-31T06:10:10;15.80;99.90
12123;DHT22;6125;59.628;17.852;2023-05-31T06:12:37;15.80;99.90
12123;DHT22;6125;59.628;17.852;2023-05-31T06:15:05;15.90;99.90
12123;DHT22;6125;59.628;17.852;2023-05-31T06:17:32;15.90;99.90
12123;DHT22;6125;59.628;17.852;2023-05-31T06:20:01;15.90;99.90
12123;DHT22;6125;59.628;17.852;2023-05-31T06:22:30;16.00;99.90
12123;DHT22;6125;59.628;17.852;2023-05-31T06:24:58;16.00;99.90
12123;DHT22;6125;59.628;17.852;2023-05-31T06:27:25;16.00;99.90
12123;DHT22;6125;59.628;17.852;2023-05-31T06:29:52;16.00;99.90
12123;DHT22;6125;59.628;17.852;2023-05-31T06:32:24;16.00;99.90
12123;DHT22;6125;59.628;17.852;2023-05-31T06:34:51;16.00;99.90
12123;DHT22;6125;59.628;17.852;2023-05-31T06:37:20;16.00;99.90
12123;DHT22;6125;59.628;17.852;2023-05-31T06:39:48;16.10;99.90
12123;DHT22;6125;59.628;17.852;2023-05-31T06:42:15;16.10;99.90
12123;DHT22;6125;59.628;17.852;2023-05-31T06:44:43;16.20;99.90
12123;DHT22;6125;59.628;17.852;2023-05-31T06:47:10;16.30;99.90
12123;DHT22;6125;59.628;17.852;2023-05-31T06:49:37;16.40;99.90
12123;DHT22;6125;59.628;17.852;2023-05-31T06:52:05;16.40;99.90
12123;DHT22;6125;59.628;17.852;2023-05-31T06:54:36;16.40;99.90
12123;DHT22;6125;59.628;17.852;2023-05-31T06:57:03;16.50;99.90
12123;DHT22;6125;59.628;17.852;2023-05-31T06:59:31;16.50;99.90
12123;DHT22;6125;59.628;17.852;2023-05-31T07:01:58;16.50;99.90
12123;DHT22;6125;59.628;17.852;2023-05-31T07:04:25;16.50;99.90
12123;DHT22;6125;59.628;17.852;2023-05-31T07:06:53;16.50;99.90
12123;DHT22;6125;59.628;17.852;2023-05-31T07:09:20;16.60;99.90
12123;DHT22;6125;59.628;17.852;2023-05-31T07:11:48;16.70;99.90
12123;DHT22;6125;59.628;17.852;2023-05-31T07:14:15;16.80;99.90
12123;DHT22;6125;59.628;17.852;2023-05-31T07:16:42;16.80;99.90
12123;DHT22;6125;59.628;17.852;2023-05-31T07:19:10;16.90;99.90
12123;DHT22;6125;59.628;17.852;2023-05-31T07:21:37;16.90;99.90
12123;DHT22;6125;59.628;17.852;2023-05-31T07:24:04;16.90;99.90
12123;DHT22;6125;59.628;17.852;2023-05-31T07:26:32;17.00;99.90
12123;DHT22;6125;59.628;17.852;2023-05-31T07:29:00;17.00;99.90
12123;DHT22;6125;59.628;17.852;2023-05-31T07:31:27;16.80;99.90
12123;DHT22;6125;59.628;17.852;2023-05-31T07:33:54;16.80;99.90
12123;DHT22;6125;59.628;17.852;2023-05-31T07:36:22;16.80;99.90
12123;DHT22;6125;59.628;17.852;2023-05-31T07:38:50;16.80;99.90
12123;DHT22;6125;59.628;17.852;2023-05-31T07:41:18;16.90;99.90
12123;DHT22;6125;59.628;17.852;2023-05-31T07:43:46;16.90;99.90
12123;DHT22;6125;59.628;17.852;2023-05-31T07:46:14;17.10;99.90
12123;DHT22;6125;59.628;17.852;2023-05-31T07:48:42;17.20;99.90
12123;DHT22;6125;59.628;17.852;2023-05-31T07:51:09;17.20;99.90
12123;DHT22;6125;59.628;17.852;2023-05-31T07:53:36;17.20;99.90
12123;DHT22;6125;59.628;17.852;2023-05-31T07:56:06;17.30;99.90
12123;DHT22;6125;59.628;17.852;2023-05-31T07:58:33;17.40;99.90
12123;DHT22;6125;59.628;17.852;2023-05-31T08:01:00;17.40;99.90
12123;DHT22;6125;59.628;17.852;2023-05-31T08:03:28;17.40;99.90
12123;DHT22;6125;59.628;17.852;2023-05-31T08:05:56;17.40;99.90
12123;DHT22;6125;59.628;17.852;2023-05-31T08:08:23;17.50;99.90
12123;DHT22;6125;59.628;17.852;2023-05-31T08:10:50;17.50;99.90
12123;DHT22;6125;59.628;17.852;2023-05-31T08:13:17;17.50;99.90
12123;DHT22;6125;59.628;17.852;2023-05-31T08:15:45;17.50;99.90
12123;DHT22;6125;59.628;17.852;2023-05-31T08:18:19;17.50;99.90
12123;DHT22;6125;59.628;17.852;2023-05-31T08:20:47;17.40;99.90
12123;DHT22;6125;59.628;17.852;2023-05-31T08:23:18;17.50;99.90
12123;DHT22;6125;59.628;17.852;2023-05-31T08:25:45;17.50;99.90
12123;DHT22;6125;59.628;17.852;2023-05-31T08:28:12;17.70;99.90
12123;DHT22;6125;59.628;17.852;2023-05-31T08:30:40;17.80;99.90
12123;DHT22;6125;59.628;17.852;2023-05-31T08:33:07;17.90;99.90
12123;DHT22;6125;59.628;17.852;2023-05-31T08:35:34;17.90;99.90
12123;DHT22;6125;59.628;17.852;2023-05-31T08:38:02;17.90;99.90
12123;DHT22;6125;59.628;17.852;2023-05-31T08:40:30;17.90;99.70
12123;DHT22;6125;59.628;17.852;2023-05-31T08:43:00;17.80;99.90
12123;DHT22;6125;59.628;17.852;2023-05-31T08:45:30;17.90;99.90
12123;DHT22;6125;59.628;17.852;2023-05-31T08:48:05;18.00;99.50
12123;DHT22;6125;59.628;17.852;2023-05-31T08:50:34;17.90;99.10
12123;DHT22;6125;59.628;17.852;2023-05-31T08:53:06;17.90;99.90
12123;DHT22;6125;59.628;17.852;2023-05-31T08:55:34;17.90;99.90
12123;DHT22;6125;59.628;17.852;2023-05-31T08:58:02;17.90;99.90
12123;DHT22;6125;59.628;17.852;2023-05-31T09:00:30;18.00;99.90
12123;DHT22;6125;59.628;17.852;2023-05-31T09:02:58;18.10;99.50
12123;DHT22;6125;59.628;17.852;2023-05-31T09:05:26;18.20;99.30
12123;DHT22;6125;59.628;17.852;2023-05-31T09:07:53;18.40;99.90
12123;DHT22;6125;59.628;17.852;2023-05-31T09:10:23;18.50;99.70
12123;DHT22;6125;59.628;17.852;2023-05-31T09:12:51;18.40;98.80
12123;DHT22;6125;59.628;17.852;2023-05-31T09:15:22;18.40;99.60
12123;DHT22;6125;59.628;17.852;2023-05-31T09:17:50;18.50;99.70
12123;DHT22;6125;59.628;17.852;2023-05-31T09:20:18;18.50;99.30
12123;DHT22;6125;59.628;17.852;2023-05-31T09:22:47;18.70;99.50
12123;DHT22;6125;59.628;17.852;2023-05-31T09:25:14;18.80;99.20
12123;DHT22;6125;59.628;17.852;2023-05-31T09:27:43;18.80;98.60
12123;DHT22;6125;59.628;17.852;2023-05-31T09:30:11;18.80;99.10
12123;DHT22;6125;59.628;17.852;2023-05-31T09:32:39;18.90;99.20
12123;DHT22;6125;59.628;17.852;2023-05-31T09:35:11;19.00;99.20
12123;DHT22;6125;59.628;17.852;2023-05-31T09:37:45;19.20;98.90
12123;DHT22;6125;59.628;17.852;2023-05-31T09:40:13;19.10;98.70
12123;DHT22;6125;59.628;17.852;2023-05-31T09:42:49;19.10;99.00
12123;DHT22;6125;59.628;17.852;2023-05-31T09:45:17;19.10;99.00
12123;DHT22;6125;59.628;17.852;2023-05-31T09:47:45;19.30;99.40
12123;DHT22;6125;59.628;17.852;2023-05-31T09:50:15;19.40;98.40
12123;DHT22;6125;59.628;17.852;2023-05-31T09:52:43;19.40;98.70
12123;DHT22;6125;59.628;17.852;2023-05-31T09:55:12;19.40;99.20
12123;DHT22;6125;59.628;17.852;2023-05-31T09:57:40;19.40;98.70
12123;DHT22;6125;59.628;17.852;2023-05-31T10:00:12;19.50;96.80
12123;DHT22;6125;59.628;17.852;2023-05-31T10:02:42;19.50;96.70
12123;DHT22;6125;59.628;17.852;2023-05-31T10:05:10;19.50;96.70
12123;DHT22;6125;59.628;17.852;2023-05-31T10:07:39;19.60;96.90
12123;DHT22;6125;59.628;17.852;2023-05-31T10:10:07;19.70;96.90
12123;DHT22;6125;59.628;17.852;2023-05-31T10:12:41;19.80;97.30
12123;DHT22;6125;59.628;17.852;2023-05-31T10:15:12;19.90;96.50
12123;DHT22;6125;59.628;17.852;2023-05-31T10:17:46;19.90;96.50
12123;DHT22;6125;59.628;17.852;2023-05-31T10:20:16;20.00;96.00
12123;DHT22;6125;59.628;17.852;2023-05-31T10:22:45;20.00;96.20
12123;DHT22;6125;59.628;17.852;2023-05-31T10:25:22;19.90;95.60
12123;DHT22;6125;59.628;17.852;2023-05-31T10:27:53;19.60;95.50
12123;DHT22;6125;59.628;17.852;2023-05-31T10:30:25;19.50;95.70
12123;DHT22;6125;59.628;17.852;2023-05-31T10:32:59;19.50;95.80
12123;DHT22;6125;59.628;17.852;2023-05-31T10:35:27;19.60;95.80
12123;DHT22;6125;59.628;17.852;2023-05-31T10:37:55;19.80;95.60
12123;DHT22;6125;59.628;17.852;2023-05-31T10:40:27;20.10;95.00
12123;DHT22;6125;59.628;17.852;2023-05-31T10:43:00;20.20;95.10
12123;DHT22;6125;59.628;17.852;2023-05-31T10:45:34;20.10;95.10
12123;DHT22;6125;59.628;17.852;2023-05-31T10:48:10;20.10;95.00
12123;DHT22;6125;59.628;17.852;2023-05-31T10:50:55;20.10;94.50
12123;DHT22;6125;59.628;17.852;2023-05-31T10:53:23;20.40;95.00
12123;DHT22;6125;59.628;17.852;2023-05-31T10:56:01;20.70;93.90
12123;DHT22;6125;59.628;17.852;2023-05-31T10:58:37;20.80;93.70
12123;DHT22;6125;59.628;17.852;2023-05-31T11:01:06;20.60;93.10
12123;DHT22;6125;59.628;17.852;2023-05-31T11:03:34;20.30;93.80
12123;DHT22;6125;59.628;17.852;2023-05-31T11:06:02;20.20;93.70
12123;DHT22;6125;59.628;17.852;2023-05-31T11:08:31;20.30;93.90
12123;DHT22;6125;59.628;17.852;2023-05-31T11:13:59;20.50;93.50
12123;DHT22;6125;59.628;17.852;2023-05-31T11:16:30;20.70;93.70
12123;DHT22;6125;59.628;17.852;2023-05-31T11:19:02;20.90;93.10
12123;DHT22;6125;59.628;17.852;2023-05-31T11:21:51;21.10;93.60
12123;DHT22;6125;59.628;17.852;2023-05-31T11:24:30;21.30;93.30
12123;DHT22;6125;59.628;17.852;2023-05-31T11:26:58;21.20;93.10
12123;DHT22;6125;59.628;17.852;2023-05-31T11:29:58;21.10;92.90
12123;DHT22;6125;59.628;17.852;2023-05-31T11:32:55;20.90;92.80
12123;DHT22;6125;59.628;17.852;2023-05-31T11:35:23;20.60;92.90
12123;DHT22;6125;59.628;17.852;2023-05-31T11:38:03;20.50;93.40
12123;DHT22;6125;59.628;17.852;2023-05-31T11:40:31;20.50;92.90
12123;DHT22;6125;59.628;17.852;2023-05-31T11:43:07;20.50;93.40
12123;DHT22;6125;59.628;17.852;2023-05-31T11:45:46;20.50;93.10
12123;DHT22;6125;59.628;17.852;2023-05-31T11:48:34;20.50;93.60
12123;DHT22;6125;59.628;17.852;2023-05-31T11:51:02;20.80;93.10
12123;DHT22;6125;59.628;17.852;2023-05-31T11:53:30;21.20;93.40
12123;DHT22;6125;59.628;17.852;2023-05-31T11:55:57;21.50;92.40
12123;DHT22;6125;59.628;17.852;2023-05-31T11:58:25;21.60;92.00
12123;DHT22;6125;59.628;17.852;2023-05-31T12:00:57;21.60;92.00
12123;DHT22;6125;59.628;17.852;2023-05-31T12:03:25;21.60;91.70
12123;DHT22;6125;59.628;17.852;2023-05-31T12:05:58;21.50;91.60
12123;DHT22;6125;59.628;17.852;2023-05-31T12:08:26;21.30;91.00
12123;DHT22;6125;59.628;17.852;2023-05-31T12:11:01;21.10;91.70
12123;DHT22;6125;59.628;17.852;2023-05-31T12:13:29;20.80;91.60
12123;DHT22;6125;59.628;17.852;2023-05-31T12:15:56;20.70;92.00
12123;DHT22;6125;59.628;17.852;2023-05-31T12:18:23;20.70;91.90
12123;DHT22;6125;59.628;17.852;2023-05-31T12:20:50;20.70;91.30
12123;DHT22;6125;59.628;17.852;2023-05-31T12:23:19;20.60;91.10
12123;DHT22;6125;59.628;17.852;2023-05-31T12:25:47;20.70;91.50
12123;DHT22;6125;59.628;17.852;2023-05-31T12:28:16;21.00;91.30
12123;DHT22;6125;59.628;17.852;2023-05-31T12:30:45;21.10;91.20
12123;DHT22;6125;59.628;17.852;2023-05-31T12:33:13;21.20;90.80
12123;DHT22;6125;59.628;17.852;2023-05-31T12:35:42;21.20;90.00
12123;DHT22;6125;59.628;17.852;2023-05-31T12:38:09;21.10;90.00
12123;DHT22;6125;59.628;17.852;2023-05-31T12:40:42;20.90;90.20
12123;DHT22;6125;59.628;17.852;2023-05-31T12:43:11;20.90;89.60
12123;DHT22;6125;59.628;17.852;2023-05-31T12:45:40;21.00;89.60
12123;DHT22;6125;59.628;17.852;2023-05-31T12:48:08;21.10;89.20
12123;DHT22;6125;59.628;17.852;2023-05-31T12:50:44;21.20;89.40
12123;DHT22;6125;59.628;17.852;2023-05-31T12:53:12;21.30;89.30
12123;DHT22;6125;59.628;17.852;2023-05-31T12:55:41;21.10;89.40
12123;DHT22;6125;59.628;17.852;2023-05-31T12:58:08;20.90;89.90
12123;DHT22;6125;59.628;17.852;2023-05-31T13:00:36;20.80;90.40
12123;DHT22;6125;59.628;17.852;2023-05-31T13:03:03;20.90;89.70
12123;DHT22;6125;59.628;17.852;2023-05-31T13:05:32;21.00;89.20
12123;DHT22;6125;59.628;17.852;2023-05-31T13:07:59;21.20;89.70
12123;DHT22;6125;59.628;17.852;2023-05-31T13:10:26;21.20;89.10
12123;DHT22;6125;59.628;17.852;2023-05-31T13:12:54;21.20;90.20
12123;DHT22;6125;59.628;17.852;2023-05-31T13:15:21;21.00;90.00
12123;DHT22;6125;59.628;17.852;2023-05-31T13:17:48;21.00;89.20
12123;DHT22;6125;59.628;17.852;2023-05-31T13:20:17;21.00;90.50
12123;DHT22;6125;59.628;17.852;2023-05-31T13:22:44;21.10;89.50
12123;DHT22;6125;59.628;17.852;2023-05-31T13:25:11;21.20;89.20
12123;DHT22;6125;59.628;17.852;2023-05-31T13:27:45;21.30;89.90
12123;DHT22;6125;59.628;17.852;2023-05-31T13:30:14;21.50;88.80
12123;DHT22;6125;59.628;17.852;2023-05-31T13:32:42;21.70;90.10
12123;DHT22;6125;59.628;17.852;2023-05-31T13:35:10;21.70;90.10
12123;DHT22;6125;59.628;17.852;2023-05-31T13:37:37;21.70;89.20
12123;DHT22;6125;59.628;17.852;2023-05-31T13:40:06;21.60;88.90
12123;DHT22;6125;59.628;17.852;2023-05-31T13:42:33;21.40;89.50
12123;DHT22;6125;59.628;17.852;2023-05-31T13:45:00;21.30;89.60
12123;DHT22;6125;59.628;17.852;2023-05-31T13:47:28;21.20;89.00
12123;DHT22;6125;59.628;17.852;2023-05-31T13:49:56;21.20;89.50
12123;DHT22;6125;59.628;17.852;2023-05-31T13:52:23;21.40;90.00
12123;DHT22;6125;59.628;17.852;2023-05-31T13:54:50;21.70;90.00
12123;DHT22;6125;59.628;17.852;2023-05-31T13:57:17;22.00;88.30
12123;DHT22;6125;59.628;17.852;2023-05-31T13:59:44;22.30;86.20
12123;DHT22;6125;59.628;17.852;2023-05-31T14:02:12;22.20;84.80
12123;DHT22;6125;59.628;17.852;2023-05-31T14:04:40;21.90;84.20
12123;DHT22;6125;59.628;17.852;2023-05-31T14:07:07;21.60;84.60
12123;DHT22;6125;59.628;17.852;2023-05-31T14:09:34;21.40;85.10
12123;DHT22;6125;59.628;17.852;2023-05-31T14:12:01;21.40;85.20
12123;DHT22;6125;59.628;17.852;2023-05-31T14:14:28;21.30;85.20
12123;DHT22;6125;59.628;17.852;2023-05-31T14:16:55;21.30;85.40
12123;DHT22;6125;59.628;17.852;2023-05-31T14:19:23;21.50;84.90
12123;DHT22;6125;59.628;17.852;2023-05-31T14:21:51;21.60;83.70
12123;DHT22;6125;59.628;17.852;2023-05-31T14:24:18;21.70;84.10
12123;DHT22;6125;59.628;17.852;2023-05-31T14:26:45;21.90;84.70
12123;DHT22;6125;59.628;17.852;2023-05-31T14:29:12;22.20;85.20
12123;DHT22;6125;59.628;17.852;2023-05-31T14:31:39;22.40;85.50
12123;DHT22;6125;59.628;17.852;2023-05-31T14:34:06;22.30;84.80
12123;DHT22;6125;59.628;17.852;2023-05-31T14:36:33;22.20;85.40
12123;DHT22;6125;59.628;17.852;2023-05-31T14:39:03;22.00;86.00
12123;DHT22;6125;59.628;17.852;2023-05-31T14:41:30;21.90;85.80
12123;DHT22;6125;59.628;17.852;2023-05-31T14:43:57;22.00;84.30
12123;DHT22;6125;59.628;17.852;2023-05-31T14:46:24;22.00;85.30
12123;DHT22;6125;59.628;17.852;2023-05-31T14:48:51;22.40;82.10
12123;DHT22;6125;59.628;17.852;2023-05-31T14:51:19;22.80;80.80
12123;DHT22;6125;59.628;17.852;2023-05-31T14:53:47;23.00;82.10
12123;DHT22;6125;59.628;17.852;2023-05-31T14:56:15;23.40;81.40
12123;DHT22;6125;59.628;17.852;2023-05-31T14:58:42;23.70;78.70
12123;DHT22;6125;59.628;17.852;2023-05-31T15:01:11;23.80;78.10
12123;DHT22;6125;59.628;17.852;2023-05-31T15:03:38;23.80;77.80
12123;DHT22;6125;59.628;17.852;2023-05-31T15:06:05;23.90;78.30
12123;DHT22;6125;59.628;17.852;2023-05-31T15:08:33;24.30;77.70
12123;DHT22;6125;59.628;17.852;2023-05-31T15:11:00;24.50;76.90
12123;DHT22;6125;59.628;17.852;2023-05-31T15:13:29;24.30;75.80
12123;DHT22;6125;59.628;17.852;2023-05-31T15:15:56;24.30;76.30
12123;DHT22;6125;59.628;17.852;2023-05-31T15:18:23;24.70;76.30
12123;DHT22;6125;59.628;17.852;2023-05-31T15:20:50;25.30;75.70
12123;DHT22;6125;59.628;17.852;2023-05-31T15:23:17;25.50;75.30
12123;DHT22;6125;59.628;17.852;2023-05-31T15:25:45;25.50;74.60
12123;DHT22;6125;59.628;17.852;2023-05-31T15:28:12;25.70;74.20
12123;DHT22;6125;59.628;17.852;2023-05-31T15:30:41;25.80;73.70
12123;DHT22;6125;59.628;17.852;2023-05-31T15:33:08;25.40;74.90
12123;DHT22;6125;59.628;17.852;2023-05-31T15:35:35;24.90;74.80
12123;DHT22;6125;59.628;17.852;2023-05-31T15:38:02;25.00;75.40
12123;DHT22;6125;59.628;17.852;2023-05-31T15:40:29;25.80;73.30
12123;DHT22;6125;59.628;17.852;2023-05-31T15:42:56;26.40;72.90